Startpagina
METAR-TAF:

METAR-TAF

Vliegvelden :

Luchthaven Tunis-Carthage

Tunis, Tunesië

breedte: 36-50N, lengte: 010-14E, hoogte: 3 m

Actueel weer

Dit bericht is 38 minuten geleden gemaakt, om 23:00 UTC
Wind 4 kt uit het oostzuidoosten, variërend tussen het oostnoordoosten en het zuidoosten
Temperatuur 23°C
Vochtigheid 53%
Druk 1016 hPa
Zicht 10 km of meer
Weinig wolken op 2600 ft

METAR: DTTA 262300Z 11004KT 060V140 9999 FEW026 23/13 Q1016 NOSIG

Tijdstip: 00:38 (23:38 UTC)

Verwachting

Dit bericht is 5 uur en het 31 minuten geleden gemaakt, om 18:07 UTC
Verwachting geldig van 26 om 18 UTC tot 27 om 18 UTC
Wind 10 kt uit het oosten
Zicht 10 km of meer
Weinig wolken op 3000 ft

TAF: DTTA 261807Z 2618/2718 10010KT 9999 FEW030

Waarnemingen en weersverwachtingen van meer dan 4000 vliegvelden (METAR en TAF).

De beschikbare stations zijn de gele en rode punten op de kaart.

Ga met uw muis naar het station om de naam te zien.

Klik dan om waarnemingen en weersverwachtingen te zien.

kaart wijzigen: klik op de groene knoppen met een zwart kruis om in te zoomen, op de groene knop met een streepje om uit te zoomen of op de groene pijlen voor aangrenzende kaarten.


METAR-TAF: